sensor_id;sensor_type;location;lat;lon;timestamp;P1;durP1;ratioP1;P2;durP2;ratioP2
51746;SDS011;37825;40.088;18.302;2022-11-27T00:01:11;6.55;;;4.22;;
51746;SDS011;37825;40.088;18.302;2022-11-27T00:03:39;4.72;;;3.15;;
51746;SDS011;37825;40.088;18.302;2022-11-27T00:06:15;6.60;;;3.30;;
51746;SDS011;37825;40.088;18.302;2022-11-27T00:08:44;10.63;;;6.22;;
51746;SDS011;37825;40.088;18.302;2022-11-27T00:11:14;8.20;;;4.18;;
51746;SDS011;37825;40.088;18.302;2022-11-27T00:13:42;6.15;;;3.58;;
51746;SDS011;37825;40.088;18.302;2022-11-27T00:16:11;7.80;;;3.88;;
51746;SDS011;37825;40.088;18.302;2022-11-27T00:18:40;3.97;;;2.03;;
51746;SDS011;37825;40.088;18.302;2022-11-27T00:21:19;2.90;;;1.70;;
51746;SDS011;37825;40.088;18.302;2022-11-27T00:23:51;2.83;;;1.58;;
51746;SDS011;37825;40.088;18.302;2022-11-27T00:26:20;2.80;;;1.40;;
51746;SDS011;37825;40.088;18.302;2022-11-27T00:28:49;3.80;;;1.45;;
51746;SDS011;37825;40.088;18.302;2022-11-27T00:31:19;2.40;;;1.30;;
51746;SDS011;37825;40.088;18.302;2022-11-27T00:33:48;5.72;;;1.70;;
51746;SDS011;37825;40.088;18.302;2022-11-27T00:36:16;3.30;;;1.65;;
51746;SDS011;37825;40.088;18.302;2022-11-27T00:38:44;2.65;;;1.30;;
51746;SDS011;37825;40.088;18.302;2022-11-27T00:41:14;6.00;;;2.08;;
51746;SDS011;37825;40.088;18.302;2022-11-27T00:43:42;6.85;;;1.45;;
51746;SDS011;37825;40.088;18.302;2022-11-27T00:46:12;3.85;;;1.48;;
51746;SDS011;37825;40.088;18.302;2022-11-27T00:48:40;7.88;;;1.58;;
51746;SDS011;37825;40.088;18.302;2022-11-27T00:51:10;4.18;;;1.48;;
51746;SDS011;37825;40.088;18.302;2022-11-27T00:53:39;4.75;;;1.40;;
51746;SDS011;37825;40.088;18.302;2022-11-27T00:56:07;6.05;;;1.23;;
51746;SDS011;37825;40.088;18.302;2022-11-27T00:58:36;5.68;;;1.65;;
51746;SDS011;37825;40.088;18.302;2022-11-27T01:01:05;5.47;;;1.33;;
51746;SDS011;37825;40.088;18.302;2022-11-27T01:03:34;4.93;;;1.40;;
51746;SDS011;37825;40.088;18.302;2022-11-27T01:06:03;4.00;;;1.77;;
51746;SDS011;37825;40.088;18.302;2022-11-27T01:08:32;5.32;;;1.52;;
51746;SDS011;37825;40.088;18.302;2022-11-27T01:11:01;2.17;;;1.13;;
51746;SDS011;37825;40.088;18.302;2022-11-27T01:13:30;4.63;;;1.30;;
51746;SDS011;37825;40.088;18.302;2022-11-27T01:16:06;5.97;;;1.70;;
51746;SDS011;37825;40.088;18.302;2022-11-27T01:18:35;5.55;;;1.40;;
51746;SDS011;37825;40.088;18.302;2022-11-27T01:21:04;4.63;;;1.23;;
51746;SDS011;37825;40.088;18.302;2022-11-27T01:23:32;5.03;;;1.70;;
51746;SDS011;37825;40.088;18.302;2022-11-27T01:26:02;1.33;;;0.90;;
51746;SDS011;37825;40.088;18.302;2022-11-27T01:28:31;3.08;;;1.10;;
51746;SDS011;37825;40.088;18.302;2022-11-27T01:31:03;7.85;;;1.40;;
51746;SDS011;37825;40.088;18.302;2022-11-27T01:33:32;5.20;;;1.35;;
51746;SDS011;37825;40.088;18.302;2022-11-27T01:36:02;4.50;;;1.13;;
51746;SDS011;37825;40.088;18.302;2022-11-27T01:38:31;1.70;;;0.90;;
51746;SDS011;37825;40.088;18.302;2022-11-27T01:41:04;2.22;;;1.48;;
51746;SDS011;37825;40.088;18.302;2022-11-27T01:43:36;2.22;;;0.93;;
51746;SDS011;37825;40.088;18.302;2022-11-27T01:48:41;4.53;;;1.45;;
51746;SDS011;37825;40.088;18.302;2022-11-27T01:51:10;4.03;;;0.80;;
51746;SDS011;37825;40.088;18.302;2022-11-27T01:53:38;8.45;;;1.45;;
51746;SDS011;37825;40.088;18.302;2022-11-27T01:56:07;6.85;;;1.10;;
51746;SDS011;37825;40.088;18.302;2022-11-27T01:58:35;3.63;;;0.98;;
51746;SDS011;37825;40.088;18.302;2022-11-27T02:01:04;5.15;;;1.00;;
51746;SDS011;37825;40.088;18.302;2022-11-27T02:03:34;9.05;;;1.48;;
51746;SDS011;37825;40.088;18.302;2022-11-27T02:06:02;2.65;;;1.20;;
51746;SDS011;37825;40.088;18.302;2022-11-27T02:08:30;4.55;;;1.02;;
51746;SDS011;37825;40.088;18.302;2022-11-27T02:16:09;5.60;;;1.10;;
51746;SDS011;37825;40.088;18.302;2022-11-27T02:18:44;3.55;;;1.17;;
51746;SDS011;37825;40.088;18.302;2022-11-27T02:29:08;2.92;;;1.33;;
51746;SDS011;37825;40.088;18.302;2022-11-27T02:34:17;4.80;;;0.98;;
51746;SDS011;37825;40.088;18.302;2022-11-27T02:36:49;2.72;;;1.10;;
51746;SDS011;37825;40.088;18.302;2022-11-27T02:39:22;5.70;;;1.30;;
51746;SDS011;37825;40.088;18.302;2022-11-27T02:41:53;6.30;;;1.42;;
51746;SDS011;37825;40.088;18.302;2022-11-27T02:46:52;4.90;;;1.38;;
51746;SDS011;37825;40.088;18.302;2022-11-27T02:49:22;5.03;;;1.40;;
51746;SDS011;37825;40.088;18.302;2022-11-27T02:51:54;4.07;;;1.35;;
51746;SDS011;37825;40.088;18.302;2022-11-27T02:54:25;5.68;;;1.42;;
51746;SDS011;37825;40.088;18.302;2022-11-27T02:56:54;2.65;;;1.10;;
51746;SDS011;37825;40.088;18.302;2022-11-27T02:59:23;5.07;;;1.45;;
51746;SDS011;37825;40.088;18.302;2022-11-27T03:01:54;3.92;;;1.23;;
51746;SDS011;37825;40.088;18.302;2022-11-27T03:04:26;3.65;;;1.20;;
51746;SDS011;37825;40.088;18.302;2022-11-27T03:06:56;4.65;;;1.02;;
51746;SDS011;37825;40.088;18.302;2022-11-27T03:09:33;3.17;;;1.00;;
51746;SDS011;37825;40.088;18.302;2022-11-27T03:12:02;5.00;;;1.25;;
51746;SDS011;37825;40.088;18.302;2022-11-27T03:14:32;4.43;;;0.98;;
51746;SDS011;37825;40.088;18.302;2022-11-27T03:17:03;5.20;;;1.08;;
51746;SDS011;37825;40.088;18.302;2022-11-27T03:22:40;4.32;;;0.75;;
51746;SDS011;37825;40.088;18.302;2022-11-27T03:25:09;3.97;;;1.00;;
51746;SDS011;37825;40.088;18.302;2022-11-27T03:27:39;7.97;;;1.35;;
51746;SDS011;37825;40.088;18.302;2022-11-27T03:30:11;2.95;;;0.90;;
51746;SDS011;37825;40.088;18.302;2022-11-27T03:32:40;5.32;;;1.70;;
51746;SDS011;37825;40.088;18.302;2022-11-27T03:35:10;3.55;;;0.95;;
51746;SDS011;37825;40.088;18.302;2022-11-27T03:37:39;6.18;;;1.30;;
51746;SDS011;37825;40.088;18.302;2022-11-27T03:40:07;5.53;;;1.05;;
51746;SDS011;37825;40.088;18.302;2022-11-27T03:45:15;3.55;;;1.17;;
51746;SDS011;37825;40.088;18.302;2022-11-27T03:55:16;2.42;;;0.80;;
51746;SDS011;37825;40.088;18.302;2022-11-27T03:57:52;4.93;;;0.90;;
51746;SDS011;37825;40.088;18.302;2022-11-27T04:00:22;3.20;;;1.10;;
51746;SDS011;37825;40.088;18.302;2022-11-27T04:02:51;3.92;;;1.00;;
51746;SDS011;37825;40.088;18.302;2022-11-27T04:05:20;2.47;;;1.17;;
51746;SDS011;37825;40.088;18.302;2022-11-27T04:07:48;3.78;;;1.15;;
51746;SDS011;37825;40.088;18.302;2022-11-27T04:10:17;4.20;;;1.15;;
51746;SDS011;37825;40.088;18.302;2022-11-27T04:12:45;5.13;;;1.00;;
51746;SDS011;37825;40.088;18.302;2022-11-27T04:15:13;2.40;;;1.00;;
51746;SDS011;37825;40.088;18.302;2022-11-27T04:17:41;3.47;;;0.68;;
51746;SDS011;37825;40.088;18.302;2022-11-27T04:20:14;1.63;;;0.88;;
51746;SDS011;37825;40.088;18.302;2022-11-27T04:22:42;4.75;;;0.77;;
51746;SDS011;37825;40.088;18.302;2022-11-27T04:25:11;2.25;;;1.05;;
51746;SDS011;37825;40.088;18.302;2022-11-27T04:27:39;4.43;;;1.17;;
51746;SDS011;37825;40.088;18.302;2022-11-27T04:30:07;1.70;;;0.82;;
51746;SDS011;37825;40.088;18.302;2022-11-27T04:32:36;2.22;;;0.73;;
51746;SDS011;37825;40.088;18.302;2022-11-27T04:35:04;3.50;;;0.70;;
51746;SDS011;37825;40.088;18.302;2022-11-27T04:37:33;4.50;;;0.90;;
51746;SDS011;37825;40.088;18.302;2022-11-27T04:40:02;2.35;;;1.00;;
51746;SDS011;37825;40.088;18.302;2022-11-27T04:42:32;1.95;;;0.90;;
51746;SDS011;37825;40.088;18.302;2022-11-27T04:45:00;3.33;;;0.52;;
51746;SDS011;37825;40.088;18.302;2022-11-27T04:47:29;2.25;;;0.75;;
51746;SDS011;37825;40.088;18.302;2022-11-27T04:49:57;4.50;;;0.80;;
51746;SDS011;37825;40.088;18.302;2022-11-27T04:52:25;4.05;;;1.00;;
51746;SDS011;37825;40.088;18.302;2022-11-27T04:54:54;3.42;;;0.80;;
51746;SDS011;37825;40.088;18.302;2022-11-27T04:57:25;5.13;;;0.98;;
51746;SDS011;37825;40.088;18.302;2022-11-27T04:59:53;3.33;;;1.00;;
51746;SDS011;37825;40.088;18.302;2022-11-27T05:02:22;3.42;;;0.93;;
51746;SDS011;37825;40.088;18.302;2022-11-27T05:04:50;1.45;;;0.55;;
51746;SDS011;37825;40.088;18.302;2022-11-27T05:07:19;4.22;;;0.98;;
51746;SDS011;37825;40.088;18.302;2022-11-27T05:09:47;2.15;;;1.10;;
51746;SDS011;37825;40.088;18.302;2022-11-27T05:12:16;2.88;;;1.00;;
51746;SDS011;37825;40.088;18.302;2022-11-27T05:14:45;3.55;;;1.00;;
51746;SDS011;37825;40.088;18.302;2022-11-27T05:17:13;4.93;;;1.15;;
51746;SDS011;37825;40.088;18.302;2022-11-27T05:19:41;1.33;;;0.52;;
51746;SDS011;37825;40.088;18.302;2022-11-27T05:22:09;3.90;;;1.10;;
51746;SDS011;37825;40.088;18.302;2022-11-27T05:24:38;3.00;;;0.90;;
51746;SDS011;37825;40.088;18.302;2022-11-27T05:27:06;3.75;;;1.20;;
51746;SDS011;37825;40.088;18.302;2022-11-27T05:29:35;3.20;;;0.90;;
51746;SDS011;37825;40.088;18.302;2022-11-27T05:32:03;3.35;;;0.63;;
51746;SDS011;37825;40.088;18.302;2022-11-27T05:34:31;4.05;;;1.45;;
51746;SDS011;37825;40.088;18.302;2022-11-27T05:37:00;4.80;;;1.27;;
51746;SDS011;37825;40.088;18.302;2022-11-27T05:39:29;2.53;;;1.00;;
51746;SDS011;37825;40.088;18.302;2022-11-27T05:41:57;5.07;;;1.35;;
51746;SDS011;37825;40.088;18.302;2022-11-27T05:44:26;3.85;;;1.30;;
51746;SDS011;37825;40.088;18.302;2022-11-27T05:46:54;1.67;;;1.10;;
51746;SDS011;37825;40.088;18.302;2022-11-27T05:49:23;3.10;;;1.27;;
51746;SDS011;37825;40.088;18.302;2022-11-27T05:51:52;2.17;;;1.25;;
51746;SDS011;37825;40.088;18.302;2022-11-27T05:54:20;5.82;;;2.00;;
51746;SDS011;37825;40.088;18.302;2022-11-27T05:56:48;4.38;;;2.40;;
51746;SDS011;37825;40.088;18.302;2022-11-27T05:59:17;5.15;;;2.33;;
51746;SDS011;37825;40.088;18.302;2022-11-27T06:01:45;5.88;;;3.40;;
51746;SDS011;37825;40.088;18.302;2022-11-27T06:04:16;4.18;;;2.60;;
51746;SDS011;37825;40.088;18.302;2022-11-27T06:06:44;5.03;;;2.55;;
51746;SDS011;37825;40.088;18.302;2022-11-27T06:09:12;5.32;;;2.33;;
51746;SDS011;37825;40.088;18.302;2022-11-27T06:11:40;7.40;;;3.15;;
51746;SDS011;37825;40.088;18.302;2022-11-27T06:14:09;4.00;;;2.55;;
51746;SDS011;37825;40.088;18.302;2022-11-27T06:16:37;3.25;;;1.88;;
51746;SDS011;37825;40.088;18.302;2022-11-27T06:19:06;7.57;;;2.25;;
51746;SDS011;37825;40.088;18.302;2022-11-27T06:21:35;4.35;;;2.10;;
51746;SDS011;37825;40.088;18.302;2022-11-27T06:24:03;4.82;;;2.10;;
51746;SDS011;37825;40.088;18.302;2022-11-27T06:26:31;5.60;;;2.58;;
51746;SDS011;37825;40.088;18.302;2022-11-27T06:29:01;5.55;;;2.10;;
51746;SDS011;37825;40.088;18.302;2022-11-27T06:31:30;6.63;;;2.65;;
51746;SDS011;37825;40.088;18.302;2022-11-27T06:33:59;5.55;;;2.17;;
51746;SDS011;37825;40.088;18.302;2022-11-27T06:36:28;17.23;;;9.35;;
51746;SDS011;37825;40.088;18.302;2022-11-27T06:38:57;8.73;;;5.35;;
51746;SDS011;37825;40.088;18.302;2022-11-27T06:41:26;6.07;;;3.50;;
51746;SDS011;37825;40.088;18.302;2022-11-27T06:43:56;5.22;;;2.10;;
51746;SDS011;37825;40.088;18.302;2022-11-27T06:46:24;4.18;;;1.92;;
51746;SDS011;37825;40.088;18.302;2022-11-27T06:48:53;4.93;;;2.45;;
51746;SDS011;37825;40.088;18.302;2022-11-27T06:51:25;5.35;;;2.25;;
51746;SDS011;37825;40.088;18.302;2022-11-27T06:53:54;6.50;;;2.95;;
51746;SDS011;37825;40.088;18.302;2022-11-27T06:56:24;5.10;;;3.00;;
51746;SDS011;37825;40.088;18.302;2022-11-27T06:58:53;6.38;;;4.10;;
51746;SDS011;37825;40.088;18.302;2022-11-27T07:01:22;6.75;;;3.67;;
51746;SDS011;37825;40.088;18.302;2022-11-27T07:03:50;5.38;;;3.40;;
51746;SDS011;37825;40.088;18.302;2022-11-27T07:06:20;5.88;;;2.63;;
51746;SDS011;37825;40.088;18.302;2022-11-27T07:08:48;5.68;;;2.22;;
51746;SDS011;37825;40.088;18.302;2022-11-27T07:11:18;6.65;;;2.33;;
51746;SDS011;37825;40.088;18.302;2022-11-27T07:13:46;4.63;;;2.40;;
51746;SDS011;37825;40.088;18.302;2022-11-27T07:16:16;3.42;;;1.90;;
51746;SDS011;37825;40.088;18.302;2022-11-27T07:18:45;6.63;;;1.98;;
51746;SDS011;37825;40.088;18.302;2022-11-27T07:21:15;8.23;;;2.78;;
51746;SDS011;37825;40.088;18.302;2022-11-27T07:23:43;6.72;;;2.58;;
51746;SDS011;37825;40.088;18.302;2022-11-27T07:26:16;9.90;;;4.88;;
51746;SDS011;37825;40.088;18.302;2022-11-27T07:28:45;10.13;;;5.18;;
51746;SDS011;37825;40.088;18.302;2022-11-27T07:31:14;15.95;;;11.75;;
51746;SDS011;37825;40.088;18.302;2022-11-27T07:33:44;6.90;;;4.20;;
51746;SDS011;37825;40.088;18.302;2022-11-27T07:36:18;21.65;;;13.98;;
51746;SDS011;37825;40.088;18.302;2022-11-27T07:38:46;28.23;;;17.35;;
51746;SDS011;37825;40.088;18.302;2022-11-27T07:41:15;76.07;;;46.50;;
51746;SDS011;37825;40.088;18.302;2022-11-27T07:43:43;115.25;;;76.55;;
51746;SDS011;37825;40.088;18.302;2022-11-27T07:46:19;28.27;;;21.70;;
51746;SDS011;37825;40.088;18.302;2022-11-27T07:48:48;14.35;;;9.25;;
51746;SDS011;37825;40.088;18.302;2022-11-27T07:51:17;14.43;;;7.50;;
51746;SDS011;37825;40.088;18.302;2022-11-27T07:53:46;10.65;;;6.15;;
51746;SDS011;37825;40.088;18.302;2022-11-27T07:56:17;7.63;;;5.60;;
51746;SDS011;37825;40.088;18.302;2022-11-27T07:58:46;8.77;;;4.85;;
51746;SDS011;37825;40.088;18.302;2022-11-27T08:01:16;7.97;;;4.85;;
51746;SDS011;37825;40.088;18.302;2022-11-27T08:03:44;8.40;;;5.55;;
51746;SDS011;37825;40.088;18.302;2022-11-27T08:06:18;9.63;;;6.10;;
51746;SDS011;37825;40.088;18.302;2022-11-27T08:08:47;7.47;;;4.30;;
51746;SDS011;37825;40.088;18.302;2022-11-27T08:13:47;7.20;;;5.30;;
51746;SDS011;37825;40.088;18.302;2022-11-27T08:16:16;12.10;;;8.75;;
51746;SDS011;37825;40.088;18.302;2022-11-27T08:18:44;12.90;;;10.32;;
51746;SDS011;37825;40.088;18.302;2022-11-27T08:21:13;13.50;;;9.05;;
51746;SDS011;37825;40.088;18.302;2022-11-27T08:23:41;12.80;;;8.77;;
51746;SDS011;37825;40.088;18.302;2022-11-27T08:26:10;8.82;;;7.72;;
51746;SDS011;37825;40.088;18.302;2022-11-27T08:28:38;11.63;;;7.65;;
51746;SDS011;37825;40.088;18.302;2022-11-27T08:31:08;8.75;;;7.60;;
51746;SDS011;37825;40.088;18.302;2022-11-27T08:33:37;13.45;;;8.80;;
51746;SDS011;37825;40.088;18.302;2022-11-27T08:36:05;16.08;;;10.77;;
51746;SDS011;37825;40.088;18.302;2022-11-27T08:38:35;16.60;;;10.25;;
51746;SDS011;37825;40.088;18.302;2022-11-27T08:41:04;19.13;;;11.48;;
51746;SDS011;37825;40.088;18.302;2022-11-27T08:43:33;24.73;;;15.60;;
51746;SDS011;37825;40.088;18.302;2022-11-27T08:46:02;31.38;;;21.77;;
51746;SDS011;37825;40.088;18.302;2022-11-27T08:48:31;27.90;;;19.92;;
51746;SDS011;37825;40.088;18.302;2022-11-27T08:51:03;25.00;;;16.80;;
51746;SDS011;37825;40.088;18.302;2022-11-27T08:53:33;23.92;;;15.13;;
51746;SDS011;37825;40.088;18.302;2022-11-27T08:56:04;17.17;;;12.00;;
51746;SDS011;37825;40.088;18.302;2022-11-27T08:58:32;16.17;;;10.82;;
51746;SDS011;37825;40.088;18.302;2022-11-27T09:01:07;12.75;;;9.35;;
51746;SDS011;37825;40.088;18.302;2022-11-27T09:03:36;12.68;;;9.48;;
51746;SDS011;37825;40.088;18.302;2022-11-27T09:06:05;12.93;;;10.70;;
51746;SDS011;37825;40.088;18.302;2022-11-27T09:08:33;15.85;;;11.07;;
51746;SDS011;37825;40.088;18.302;2022-11-27T09:11:02;25.20;;;17.33;;
51746;SDS011;37825;40.088;18.302;2022-11-27T09:13:31;44.00;;;33.35;;
51746;SDS011;37825;40.088;18.302;2022-11-27T09:16:03;34.78;;;27.05;;
51746;SDS011;37825;40.088;18.302;2022-11-27T09:18:32;29.23;;;21.98;;
51746;SDS011;37825;40.088;18.302;2022-11-27T09:21:01;31.00;;;21.35;;
51746;SDS011;37825;40.088;18.302;2022-11-27T09:23:30;22.38;;;17.55;;
51746;SDS011;37825;40.088;18.302;2022-11-27T09:26:00;14.73;;;10.10;;
51746;SDS011;37825;40.088;18.302;2022-11-27T09:28:29;40.58;;;26.95;;
51746;SDS011;37825;40.088;18.302;2022-11-27T09:30:59;31.67;;;23.05;;
51746;SDS011;37825;40.088;18.302;2022-11-27T09:33:28;15.40;;;11.02;;
51746;SDS011;37825;40.088;18.302;2022-11-27T09:35:57;10.05;;;7.53;;
51746;SDS011;37825;40.088;18.302;2022-11-27T09:38:25;11.00;;;6.38;;
51746;SDS011;37825;40.088;18.302;2022-11-27T09:40:54;9.32;;;6.07;;
51746;SDS011;37825;40.088;18.302;2022-11-27T09:43:28;10.75;;;6.45;;
51746;SDS011;37825;40.088;18.302;2022-11-27T09:45:59;13.27;;;8.57;;
51746;SDS011;37825;40.088;18.302;2022-11-27T09:48:33;13.73;;;10.35;;
51746;SDS011;37825;40.088;18.302;2022-11-27T09:51:03;19.25;;;13.50;;
51746;SDS011;37825;40.088;18.302;2022-11-27T09:53:42;23.00;;;15.53;;
51746;SDS011;37825;40.088;18.302;2022-11-27T09:56:15;19.17;;;14.30;;
51746;SDS011;37825;40.088;18.302;2022-11-27T09:58:45;14.63;;;10.20;;
51746;SDS011;37825;40.088;18.302;2022-11-27T10:01:16;11.00;;;8.23;;
51746;SDS011;37825;40.088;18.302;2022-11-27T10:03:44;14.40;;;10.15;;
51746;SDS011;37825;40.088;18.302;2022-11-27T10:11:53;20.65;;;16.15;;
51746;SDS011;37825;40.088;18.302;2022-11-27T10:27:56;11.77;;;9.85;;
51746;SDS011;37825;40.088;18.302;2022-11-27T10:30:28;17.58;;;13.02;;
51746;SDS011;37825;40.088;18.302;2022-11-27T10:32:58;8.73;;;7.82;;
51746;SDS011;37825;40.088;18.302;2022-11-27T10:35:28;10.80;;;8.85;;
51746;SDS011;37825;40.088;18.302;2022-11-27T10:43:25;13.30;;;9.77;;
51746;SDS011;37825;40.088;18.302;2022-11-27T10:46:01;15.93;;;13.50;;
51746;SDS011;37825;40.088;18.302;2022-11-27T10:48:32;23.92;;;20.33;;
51746;SDS011;37825;40.088;18.302;2022-11-27T10:51:01;27.42;;;18.38;;
51746;SDS011;37825;40.088;18.302;2022-11-27T11:01:11;12.23;;;10.63;;
51746;SDS011;37825;40.088;18.302;2022-11-27T11:03:39;11.23;;;9.75;;
51746;SDS011;37825;40.088;18.302;2022-11-27T11:06:15;6.43;;;5.55;;
51746;SDS011;37825;40.088;18.302;2022-11-27T11:08:47;12.85;;;9.57;;
51746;SDS011;37825;40.088;18.302;2022-11-27T11:11:23;19.02;;;14.57;;
51746;SDS011;37825;40.088;18.302;2022-11-27T11:13:52;13.50;;;10.82;;
51746;SDS011;37825;40.088;18.302;2022-11-27T11:16:23;13.25;;;10.48;;
51746;SDS011;37825;40.088;18.302;2022-11-27T11:18:54;13.15;;;10.15;;
51746;SDS011;37825;40.088;18.302;2022-11-27T11:24:01;19.38;;;16.52;;
51746;SDS011;37825;40.088;18.302;2022-11-27T11:26:32;19.25;;;13.60;;
51746;SDS011;37825;40.088;18.302;2022-11-27T11:29:02;25.30;;;20.15;;
51746;SDS011;37825;40.088;18.302;2022-11-27T11:31:35;14.25;;;10.27;;
51746;SDS011;37825;40.088;18.302;2022-11-27T11:34:27;8.45;;;7.50;;
51746;SDS011;37825;40.088;18.302;2022-11-27T11:37:28;10.57;;;9.60;;
51746;SDS011;37825;40.088;18.302;2022-11-27T11:42:34;9.60;;;7.75;;
51746;SDS011;37825;40.088;18.302;2022-11-27T11:45:05;17.70;;;14.65;;
51746;SDS011;37825;40.088;18.302;2022-11-27T11:47:34;42.97;;;38.28;;
51746;SDS011;37825;40.088;18.302;2022-11-27T11:50:12;16.13;;;13.48;;
51746;SDS011;37825;40.088;18.302;2022-11-27T12:00:33;12.77;;;10.68;;
51746;SDS011;37825;40.088;18.302;2022-11-27T12:03:22;26.77;;;20.25;;
51746;SDS011;37825;40.088;18.302;2022-11-27T12:08:35;22.88;;;17.95;;
51746;SDS011;37825;40.088;18.302;2022-11-27T12:11:14;34.60;;;21.83;;
51746;SDS011;37825;40.088;18.302;2022-11-27T12:16:33;21.83;;;17.77;;
51746;SDS011;37825;40.088;18.302;2022-11-27T12:21:48;26.92;;;17.40;;
51746;SDS011;37825;40.088;18.302;2022-11-27T12:26:58;15.10;;;10.32;;
51746;SDS011;37825;40.088;18.302;2022-11-27T12:34:42;11.93;;;8.60;;
51746;SDS011;37825;40.088;18.302;2022-11-27T12:37:19;13.45;;;8.88;;
51746;SDS011;37825;40.088;18.302;2022-11-27T12:45:11;15.25;;;11.82;;
51746;SDS011;37825;40.088;18.302;2022-11-27T12:47:43;9.43;;;7.35;;
51746;SDS011;37825;40.088;18.302;2022-11-27T12:52:52;19.90;;;14.00;;
51746;SDS011;37825;40.088;18.302;2022-11-27T12:55:25;14.20;;;9.82;;
51746;SDS011;37825;40.088;18.302;2022-11-27T12:58:03;9.77;;;7.40;;
51746;SDS011;37825;40.088;18.302;2022-11-27T13:00:34;16.08;;;12.65;;
51746;SDS011;37825;40.088;18.302;2022-11-27T13:05:40;11.52;;;8.80;;
51746;SDS011;37825;40.088;18.302;2022-11-27T13:10:42;11.43;;;8.32;;
51746;SDS011;37825;40.088;18.302;2022-11-27T13:13:22;12.63;;;7.75;;
51746;SDS011;37825;40.088;18.302;2022-11-27T13:15:53;16.15;;;11.35;;
51746;SDS011;37825;40.088;18.302;2022-11-27T13:21:11;8.15;;;5.97;;
51746;SDS011;37825;40.088;18.302;2022-11-27T13:23:40;16.65;;;14.18;;
51746;SDS011;37825;40.088;18.302;2022-11-27T13:26:13;11.25;;;8.43;;
51746;SDS011;37825;40.088;18.302;2022-11-27T13:28:45;9.70;;;8.32;;
51746;SDS011;37825;40.088;18.302;2022-11-27T13:31:24;11.98;;;10.05;;
51746;SDS011;37825;40.088;18.302;2022-11-27T13:33:58;14.73;;;12.02;;
51746;SDS011;37825;40.088;18.302;2022-11-27T13:36:38;17.08;;;13.63;;
51746;SDS011;37825;40.088;18.302;2022-11-27T13:39:19;18.27;;;14.30;;
51746;SDS011;37825;40.088;18.302;2022-11-27T13:41:57;14.13;;;10.75;;
51746;SDS011;37825;40.088;18.302;2022-11-27T13:44:26;14.93;;;11.88;;
51746;SDS011;37825;40.088;18.302;2022-11-27T13:46:57;12.77;;;8.40;;
51746;SDS011;37825;40.088;18.302;2022-11-27T13:49:29;7.22;;;6.50;;
51746;SDS011;37825;40.088;18.302;2022-11-27T13:52:06;9.05;;;7.32;;
51746;SDS011;37825;40.088;18.302;2022-11-27T13:54:35;4.65;;;3.63;;
51746;SDS011;37825;40.088;18.302;2022-11-27T13:57:16;7.43;;;5.28;;
51746;SDS011;37825;40.088;18.302;2022-11-27T14:00:05;17.83;;;12.57;;
51746;SDS011;37825;40.088;18.302;2022-11-27T14:05:08;11.20;;;7.13;;
51746;SDS011;37825;40.088;18.302;2022-11-27T14:07:37;16.95;;;11.13;;
51746;SDS011;37825;40.088;18.302;2022-11-27T14:10:09;12.43;;;9.40;;
51746;SDS011;37825;40.088;18.302;2022-11-27T14:22:50;12.40;;;9.63;;
51746;SDS011;37825;40.088;18.302;2022-11-27T14:25:37;11.38;;;6.97;;
51746;SDS011;37825;40.088;18.302;2022-11-27T14:28:16;11.07;;;8.13;;
51746;SDS011;37825;40.088;18.302;2022-11-27T14:30:48;21.27;;;16.17;;
51746;SDS011;37825;40.088;18.302;2022-11-27T14:35:47;14.52;;;10.63;;
51746;SDS011;37825;40.088;18.302;2022-11-27T14:38:15;7.82;;;4.38;;
51746;SDS011;37825;40.088;18.302;2022-11-27T14:40:44;10.57;;;9.48;;
51746;SDS011;37825;40.088;18.302;2022-11-27T14:43:13;10.93;;;9.05;;
51746;SDS011;37825;40.088;18.302;2022-11-27T14:45:47;14.85;;;12.98;;
51746;SDS011;37825;40.088;18.302;2022-11-27T14:48:18;14.88;;;10.40;;
51746;SDS011;37825;40.088;18.302;2022-11-27T14:50:47;14.10;;;11.55;;
51746;SDS011;37825;40.088;18.302;2022-11-27T14:53:17;16.17;;;13.02;;
51746;SDS011;37825;40.088;18.302;2022-11-27T14:55:47;11.13;;;9.27;;
51746;SDS011;37825;40.088;18.302;2022-11-27T14:58:21;9.88;;;8.23;;
51746;SDS011;37825;40.088;18.302;2022-11-27T15:00:51;11.52;;;9.88;;
51746;SDS011;37825;40.088;18.302;2022-11-27T15:03:19;21.55;;;16.55;;
51746;SDS011;37825;40.088;18.302;2022-11-27T15:05:58;63.38;;;46.08;;
51746;SDS011;37825;40.088;18.302;2022-11-27T15:08:27;15.57;;;11.00;;
51746;SDS011;37825;40.088;18.302;2022-11-27T15:10:57;22.00;;;14.90;;
51746;SDS011;37825;40.088;18.302;2022-11-27T15:13:28;26.55;;;23.05;;
51746;SDS011;37825;40.088;18.302;2022-11-27T15:18:25;22.73;;;18.45;;
51746;SDS011;37825;40.088;18.302;2022-11-27T15:20:54;26.50;;;23.73;;
51746;SDS011;37825;40.088;18.302;2022-11-27T15:23:26;23.15;;;19.98;;
51746;SDS011;37825;40.088;18.302;2022-11-27T15:30:56;19.88;;;17.20;;
51746;SDS011;37825;40.088;18.302;2022-11-27T15:33:25;25.38;;;19.65;;
51746;SDS011;37825;40.088;18.302;2022-11-27T15:38:41;26.27;;;20.88;;
51746;SDS011;37825;40.088;18.302;2022-11-27T15:41:32;25.65;;;20.13;;
51746;SDS011;37825;40.088;18.302;2022-11-27T15:44:00;28.35;;;19.73;;
51746;SDS011;37825;40.088;18.302;2022-11-27T15:46:30;23.23;;;20.63;;
51746;SDS011;37825;40.088;18.302;2022-11-27T15:51:28;23.25;;;19.27;;
51746;SDS011;37825;40.088;18.302;2022-11-27T15:53:57;24.80;;;19.25;;
51746;SDS011;37825;40.088;18.302;2022-11-27T15:56:25;21.23;;;19.02;;
51746;SDS011;37825;40.088;18.302;2022-11-27T15:58:54;23.48;;;17.92;;
51746;SDS011;37825;40.088;18.302;2022-11-27T16:01:22;23.25;;;19.40;;
51746;SDS011;37825;40.088;18.302;2022-11-27T16:03:51;20.92;;;18.45;;
51746;SDS011;37825;40.088;18.302;2022-11-27T16:06:20;20.27;;;16.30;;
51746;SDS011;37825;40.088;18.302;2022-11-27T16:08:54;26.88;;;19.20;;
51746;SDS011;37825;40.088;18.302;2022-11-27T16:11:23;24.90;;;19.02;;
51746;SDS011;37825;40.088;18.302;2022-11-27T16:13:52;29.55;;;18.85;;
51746;SDS011;37825;40.088;18.302;2022-11-27T16:16:21;42.22;;;28.67;;
51746;SDS011;37825;40.088;18.302;2022-11-27T16:18:49;26.55;;;20.55;;
51746;SDS011;37825;40.088;18.302;2022-11-27T16:21:17;19.27;;;16.77;;
51746;SDS011;37825;40.088;18.302;2022-11-27T16:23:46;24.48;;;19.52;;
51746;SDS011;37825;40.088;18.302;2022-11-27T16:26:14;28.88;;;24.02;;
51746;SDS011;37825;40.088;18.302;2022-11-27T16:28:42;16.42;;;13.80;;
51746;SDS011;37825;40.088;18.302;2022-11-27T16:31:11;21.85;;;19.02;;
51746;SDS011;37825;40.088;18.302;2022-11-27T16:33:41;30.15;;;21.17;;
51746;SDS011;37825;40.088;18.302;2022-11-27T16:36:12;20.63;;;16.15;;
51746;SDS011;37825;40.088;18.302;2022-11-27T16:38:41;23.73;;;19.55;;
51746;SDS011;37825;40.088;18.302;2022-11-27T16:41:12;19.30;;;14.65;;
51746;SDS011;37825;40.088;18.302;2022-11-27T16:43:42;19.35;;;15.40;;
51746;SDS011;37825;40.088;18.302;2022-11-27T16:46:13;22.13;;;16.63;;
51746;SDS011;37825;40.088;18.302;2022-11-27T16:48:42;14.02;;;11.50;;
51746;SDS011;37825;40.088;18.302;2022-11-27T16:51:16;22.90;;;18.77;;
51746;SDS011;37825;40.088;18.302;2022-11-27T16:53:46;24.40;;;19.17;;
51746;SDS011;37825;40.088;18.302;2022-11-27T16:56:15;25.07;;;22.13;;
51746;SDS011;37825;40.088;18.302;2022-11-27T16:58:45;25.27;;;19.53;;
51746;SDS011;37825;40.088;18.302;2022-11-27T17:01:17;20.17;;;14.53;;
51746;SDS011;37825;40.088;18.302;2022-11-27T17:03:46;18.00;;;15.77;;